Snoqualmie, WA

1:33 PM PDT on October 24, 2014 (GMT -0700)
Indian Hill | Change Station
CLOSE
Current Station
Personal Weather Station
Location: Snoqualmie, WA
Elevation: 817 ft
Nearby Weather Stations
Active Advisory: Wind Advisory, Special Statement

Elev 817 ft 47.54 °N, 121.79 °W | Updated 3 minutes ago

Mostly Cloudy
Mostly Cloudy
54.1 °F
Feels Like 54.1 °F
N
0.0
Wind Variable Wind from SW
Gusts 0.0 mph

Today
High -- | Low -- °F
--% Chance of Precip.
Yesterday
High -- | Low -- °F
Precip. -- in
7:39 AM 6:02 PM
New Moon, 1% visible
Pressure 30.00 in
Visibility 3.0 miles
Clouds Clear
Dew Point 52 °F
Humidity 93%
Rainfall 0.05 in
Snow Depth 0 in , 0 in
UV 1.0 out of 12
Pollen .40 out of 12
PM2.5 Good
Flu Activity Sporadic
METAR KRNT 241953Z 30005KT 3SM HZ CLR 13/10 A2999 RMK AO2 SLP159 T01280100

More Conditions Fewer Conditions

Pressure 30.00 in
Visibility 3.0 miles
Clouds Clear
Dew Point 52 °F
Humidity 93%
Rainfall 0.05 in
Snow Depth 0 in , 0 in
UV 1.0 out of 12
Pollen .40 out of 12
PM2.5 Good
Flu Activity Sporadic
METAR KRNT 241953Z 30005KT 3SM HZ CLR 13/10 A2999 RMK AO2 SLP159 T01280100

More Conditions Fewer Conditions

10-Day Weather Forecast

Almanac

Astronomy

Oct. 24, 2014 Rise Set
Actual Time 7:39 AM PDT 6:02 PM PDT
Civil Twilight 7:07 AM PDT 6:34 PM PDT
Nautical Twilight 6:31 AM PDT 7:10 PM PDT
Astronomical Twilight 5:56 AM PDT 7:45 PM PDT
Moon 8:26 AM PDT 6:42 PM PDT
Length of Visible Light 11h 26m
Length of Day
10h 23m
Tomorrow will be 3m 12s shorter.
New Moon, 1% of the Moon is Illuminated
Today
New Moon
Oct 30
First Quarter
Nov 6
Full
Nov 14
Last Quarter
Nov 22
New

Today's Extremes

State Highs State Lows

Community

WunderPhotos

Upload Photos

1,764,648 photos uploaded!

Nearby

Air Quality

  Air Quality AQ Index Pollutant
Yesterday Good
OZONE
Yesterday Good
PM2.5
Current Good
PM2.5
Friday Good
PM2.5
Saturday Good
PM2.5
Sunday Good
PM2.5
Monday Good
PM2.5

Snow Depth

Station Depth Elevation
Mount Gardner 0 in 3000 ft
Alpine Meadows 0 in 3500 ft
Olallie Meadows 0 in 3700 ft
Meadows Pass 0 in 3500 ft
Stampede Pass 0 in 3860 ft

Earthquake Activity

City Distance Mag. Time & Date
Birch Bay, Washington 100 miles 2.8 3:02 AM PDT
2014-10-24
Minimum magnitude displayed is 2.5.

Coastal Water Temperatures

Place Temperature
Port Townsend, WA 52.0 °F
Seattle, WA 55.0 °F
Friday Harbor, WA 51.1 °F
Tacoma, WA 54.0 °F

Nearby Weather Stations